createdAt,value
2019-03-28T00:00:35.301Z,23.62
2019-03-28T00:03:04.864Z,13.55
2019-03-28T00:05:33.457Z,14.50
2019-03-28T00:08:02.297Z,15.05
2019-03-28T00:10:31.627Z,17.17
2019-03-28T00:13:00.372Z,14.75
2019-03-28T00:15:29.001Z,17.37
2019-03-28T00:17:58.310Z,15.65
2019-03-28T00:20:27.601Z,18.77
2019-03-28T00:23:25.221Z,21.77
2019-03-28T00:25:54.594Z,22.13
2019-03-28T00:28:23.900Z,20.15
2019-03-28T00:30:53.185Z,11.15
2019-03-28T00:33:22.487Z,22.35
2019-03-28T00:35:51.769Z,20.25
2019-03-28T00:38:21.065Z,21.87
2019-03-28T00:40:50.365Z,17.50
2019-03-28T00:43:19.694Z,17.75
2019-03-28T00:45:48.265Z,17.02
2019-03-28T00:48:16.865Z,28.00
2019-03-28T00:50:45.450Z,17.40
2019-03-28T00:53:14.754Z,15.30
2019-03-28T00:55:44.065Z,11.33
2019-03-28T00:58:13.351Z,17.30
2019-03-28T01:00:42.653Z,22.62
2019-03-28T01:03:11.945Z,18.30
2019-03-28T01:05:41.775Z,19.07
2019-03-28T01:08:12.174Z,22.73
2019-03-28T01:10:41.938Z,14.95
2019-03-28T01:13:11.262Z,17.52
2019-03-28T01:15:40.628Z,19.02
2019-03-28T01:18:09.934Z,16.75
2019-03-28T01:20:39.225Z,20.08
2019-03-28T01:23:08.509Z,15.55
2019-03-28T01:25:37.818Z,17.50
2019-03-28T01:28:06.388Z,25.95
2019-03-28T01:30:35.701Z,29.57
2019-03-28T01:33:05.008Z,41.33
2019-03-28T01:35:33.600Z,30.88
2019-03-28T01:38:03.082Z,18.70
2019-03-28T01:40:32.458Z,22.02
2019-03-28T01:43:01.747Z,21.62
2019-03-28T01:45:31.039Z,20.92
2019-03-28T01:48:00.309Z,24.25
2019-03-28T01:50:29.685Z,23.30
2019-03-28T01:52:58.969Z,18.57
2019-03-28T01:55:28.259Z,23.12
2019-03-28T01:57:57.539Z,17.80
2019-03-28T02:00:27.077Z,19.70
2019-03-28T02:02:56.445Z,23.90
2019-03-28T02:05:25.833Z,22.50
2019-03-28T02:07:55.114Z,30.20
2019-03-28T02:10:24.416Z,23.65
2019-03-28T02:12:53.963Z,23.22
2019-03-28T02:15:23.274Z,21.85
2019-03-28T02:17:52.549Z,21.95
2019-03-28T02:20:21.850Z,19.65
2019-03-28T02:22:51.218Z,20.10
2019-03-28T02:25:20.514Z,29.52
2019-03-28T02:27:49.805Z,16.05
2019-03-28T02:30:25.268Z,19.53
2019-03-28T02:32:54.547Z,23.32
2019-03-28T02:35:23.841Z,25.13
2019-03-28T02:37:53.121Z,21.65
2019-03-28T02:40:22.418Z,24.92
2019-03-28T02:42:51.705Z,21.87
2019-03-28T02:45:21.009Z,22.35
2019-03-28T02:47:50.297Z,22.73
2019-03-28T02:50:19.589Z,17.70
2019-03-28T02:52:49.122Z,25.48
2019-03-28T02:55:18.422Z,24.15
2019-03-28T02:57:47.801Z,26.82
2019-03-28T03:00:17.992Z,25.77
2019-03-28T03:02:47.290Z,26.05
2019-03-28T03:05:16.673Z,21.35
2019-03-28T03:07:45.961Z,28.45
2019-03-28T03:10:14.619Z,29.90
2019-03-28T03:12:43.964Z,20.60
2019-03-28T03:15:13.615Z,31.97
2019-03-28T03:17:42.992Z,21.60
2019-03-28T03:20:12.562Z,21.37
2019-03-28T03:22:41.862Z,27.95
2019-03-28T03:25:11.723Z,28.12
2019-03-28T03:27:57.154Z,26.37
2019-03-28T03:30:14.086Z,19.87
2019-03-28T03:32:43.413Z,27.67
2019-03-28T03:35:12.843Z,29.30
2019-03-28T03:37:42.136Z,25.95
2019-03-28T03:40:12.601Z,18.27
2019-03-28T03:42:42.002Z,28.05
2019-03-28T03:45:11.492Z,25.75
2019-03-28T03:47:40.800Z,23.22
2019-03-28T03:50:10.410Z,22.27
2019-03-28T03:52:39.949Z,27.42
2019-03-28T03:55:09.457Z,27.13
2019-03-28T03:57:38.769Z,30.52
2019-03-28T04:00:08.723Z,29.90
2019-03-28T04:02:38.034Z,33.53
2019-03-28T04:05:08.009Z,26.62
2019-03-28T04:07:37.322Z,29.67
2019-03-28T04:10:07.077Z,30.85
2019-03-28T04:12:36.472Z,23.38
2019-03-28T04:15:05.974Z,26.05
2019-03-28T04:17:35.302Z,24.32
2019-03-28T04:20:05.042Z,32.40
2019-03-28T04:22:34.348Z,20.57
2019-03-28T04:25:03.744Z,29.32
2019-03-28T04:27:33.039Z,23.87
2019-03-28T04:30:02.374Z,24.57
2019-03-28T04:32:31.718Z,26.50
2019-03-28T04:35:01.020Z,25.37
2019-03-28T04:37:30.333Z,37.60
2019-03-28T04:39:59.638Z,24.60
2019-03-28T04:42:28.928Z,27.30
2019-03-28T04:44:58.217Z,26.63
2019-03-28T04:47:27.497Z,28.17
2019-03-28T04:49:56.810Z,25.27
2019-03-28T04:52:26.108Z,30.97
2019-03-28T04:54:55.497Z,28.23
2019-03-28T04:57:24.879Z,25.80
2019-03-28T04:59:54.178Z,26.37
2019-03-28T05:02:23.485Z,26.97
2019-03-28T05:04:52.797Z,29.50
2019-03-28T05:07:22.089Z,26.97
2019-03-28T05:09:51.655Z,32.48
2019-03-28T05:12:21.240Z,26.57
2019-03-28T05:14:50.529Z,31.20
2019-03-28T05:17:19.825Z,34.47
2019-03-28T05:19:49.132Z,29.07
2019-03-28T05:22:18.425Z,38.40
2019-03-28T05:24:47.729Z,25.90
2019-03-28T05:27:17.108Z,31.70
2019-03-28T05:29:46.424Z,34.60
2019-03-28T05:32:15.725Z,36.98
2019-03-28T05:34:45.022Z,30.40
2019-03-28T05:37:14.320Z,33.00
2019-03-28T05:39:43.620Z,32.63
2019-03-28T05:42:12.906Z,26.47
2019-03-28T05:44:42.214Z,29.17
2019-03-28T05:47:11.504Z,28.27
2019-03-28T05:49:40.809Z,24.40
2019-03-28T05:52:11.703Z,29.30
2019-03-28T05:54:41.209Z,38.20
2019-03-28T05:57:10.506Z,30.67
2019-03-28T05:59:39.797Z,28.60
2019-03-28T06:02:09.231Z,28.70
2019-03-28T06:04:38.557Z,30.73
2019-03-28T06:07:08.891Z,35.87
2019-03-28T06:09:40.212Z,29.10
2019-03-28T06:12:09.500Z,22.23
2019-03-28T06:14:38.840Z,29.53
2019-03-28T06:17:08.205Z,31.47
2019-03-28T06:19:38.345Z,37.00
2019-03-28T06:22:07.850Z,24.20
2019-03-28T06:24:37.159Z,22.10
2019-03-28T06:27:07.484Z,32.03
2019-03-28T06:29:36.925Z,29.17
2019-03-28T06:32:06.317Z,29.03
2019-03-28T06:34:35.674Z,41.30
2019-03-28T06:37:05.059Z,30.67
2019-03-28T06:39:36.346Z,31.13
2019-03-28T06:42:04.822Z,24.80
2019-03-28T06:44:34.227Z,27.20
2019-03-28T06:47:03.545Z,30.87
2019-03-28T06:49:32.845Z,25.20
2019-03-28T06:52:02.233Z,29.87
2019-03-28T06:54:31.519Z,30.57
2019-03-28T06:57:00.821Z,36.70
2019-03-28T06:59:37.102Z,27.27
2019-03-28T07:02:01.396Z,29.27
2019-03-28T07:04:30.729Z,31.13
2019-03-28T07:07:00.071Z,29.50
2019-03-28T07:09:29.373Z,27.77
2019-03-28T07:11:58.085Z,26.20
2019-03-28T07:14:26.757Z,42.73
2019-03-28T07:16:56.197Z,20.60
2019-03-28T07:19:25.497Z,34.23
2019-03-28T07:21:54.082Z,36.50
2019-03-28T07:24:22.809Z,35.20
2019-03-28T07:26:54.241Z,31.70
2019-03-28T07:29:22.824Z,30.27
2019-03-28T07:31:51.482Z,30.53
2019-03-28T07:34:20.859Z,29.50
2019-03-28T07:36:49.462Z,32.87
2019-03-28T07:39:19.307Z,26.00
2019-03-28T07:41:48.087Z,40.77
2019-03-28T07:44:17.601Z,25.03
2019-03-28T07:46:47.784Z,34.73
2019-03-28T07:49:16.492Z,23.63
2019-03-28T07:51:45.877Z,31.80
2019-03-28T07:54:15.188Z,28.63
2019-03-28T07:56:44.600Z,32.10
2019-03-28T07:59:13.901Z,26.10
2019-03-28T08:01:43.225Z,34.10
2019-03-28T08:04:12.566Z,29.00
2019-03-28T08:06:49.841Z,34.63
2019-03-28T08:09:12.461Z,29.17
2019-03-28T08:11:41.037Z,33.20
2019-03-28T08:14:10.466Z,38.57
2019-03-28T08:16:39.269Z,32.73
2019-03-28T08:19:08.252Z,35.53
2019-03-28T08:21:36.829Z,38.73
2019-03-28T08:24:05.434Z,29.13
2019-03-28T08:26:34.793Z,33.83
2019-03-28T08:29:04.349Z,32.67
2019-03-28T08:31:33.974Z,35.20
2019-03-28T08:34:02.761Z,33.57
2019-03-28T08:36:32.125Z,35.33
2019-03-28T08:39:01.701Z,34.17
2019-03-28T08:41:30.283Z,32.80
2019-03-28T08:43:59.625Z,31.97
2019-03-28T08:46:29.027Z,32.07
2019-03-28T08:48:57.670Z,33.80
2019-03-28T08:51:27.484Z,29.70
2019-03-28T08:53:56.914Z,36.47
2019-03-28T08:56:26.515Z,33.83
2019-03-28T08:58:56.694Z,36.93
2019-03-28T09:01:25.831Z,39.23
2019-03-28T09:03:54.405Z,32.13
2019-03-28T09:06:23.065Z,36.10
2019-03-28T09:08:51.649Z,34.33
2019-03-28T09:11:21.602Z,32.17
2019-03-28T09:13:50.285Z,33.37
2019-03-28T09:16:19.599Z,34.60
2019-03-28T09:18:48.913Z,36.40
2019-03-28T09:21:18.226Z,35.00
2019-03-28T09:23:47.526Z,36.27
2019-03-28T09:26:16.822Z,38.73
2019-03-28T09:28:46.125Z,36.47
2019-03-28T09:31:20.097Z,44.27
2019-03-28T09:33:46.596Z,41.03
2019-03-28T09:36:15.893Z,44.47
2019-03-28T09:38:45.271Z,38.80
2019-03-28T09:41:14.201Z,40.63
2019-03-28T09:43:54.413Z,41.03
2019-03-28T09:46:14.811Z,36.97
2019-03-28T09:48:44.204Z,36.97
2019-03-28T09:51:13.503Z,38.43
2019-03-28T09:53:42.830Z,43.53
2019-03-28T09:56:12.129Z,34.33
2019-03-28T09:58:41.497Z,40.47
2019-03-28T10:01:10.797Z,36.17
2019-03-28T10:03:40.131Z,29.70
2019-03-28T10:06:09.417Z,36.53
2019-03-28T10:08:38.726Z,31.30
2019-03-28T10:11:08.033Z,44.30
2019-03-28T10:13:37.416Z,42.87
2019-03-28T10:16:06.713Z,35.70
2019-03-28T10:18:36.110Z,34.23
2019-03-28T10:21:05.508Z,36.23
2019-03-28T10:23:34.817Z,31.77
2019-03-28T10:26:04.148Z,30.00
2019-03-28T10:28:33.461Z,37.60
2019-03-28T10:31:15.528Z,37.43
2019-03-28T10:33:33.757Z,37.57
2019-03-28T10:36:03.225Z,33.40
2019-03-28T10:38:33.761Z,35.20
2019-03-28T10:41:03.060Z,43.97
2019-03-28T10:43:32.456Z,37.20
2019-03-28T10:46:01.901Z,35.93
2019-03-28T10:48:31.530Z,30.70
2019-03-28T10:51:00.903Z,37.63
2019-03-28T10:53:30.371Z,37.57
2019-03-28T10:55:59.790Z,47.33
2019-03-28T10:58:29.275Z,53.47
2019-03-28T11:00:58.645Z,35.17
2019-03-28T11:03:27.947Z,40.53
2019-03-28T11:05:57.327Z,43.50
2019-03-28T11:08:26.649Z,42.57
2019-03-28T11:10:56.540Z,38.57
2019-03-28T11:13:25.960Z,49.80
2019-03-28T11:15:55.241Z,46.53
2019-03-28T11:18:24.546Z,44.60
2019-03-28T11:20:53.942Z,41.37
2019-03-28T11:23:23.254Z,42.77
2019-03-28T11:25:52.643Z,41.53
2019-03-28T11:28:23.435Z,38.17
2019-03-28T11:30:52.921Z,45.07
2019-03-28T11:33:22.223Z,39.30
2019-03-28T11:35:51.786Z,37.03
2019-03-28T11:38:21.091Z,34.77
2019-03-28T11:40:49.665Z,31.00
2019-03-28T11:43:19.668Z,31.97
2019-03-28T11:45:49.129Z,34.50
2019-03-28T11:48:17.709Z,28.60
2019-03-28T11:50:46.269Z,23.83
2019-03-28T11:53:15.584Z,28.63
2019-03-28T11:55:45.142Z,19.70
2019-03-28T11:58:14.461Z,22.77
2019-03-28T12:00:43.794Z,27.70
2019-03-28T12:03:13.139Z,24.83
2019-03-28T12:05:41.860Z,22.70
2019-03-28T12:08:11.156Z,21.17
2019-03-28T12:10:40.464Z,17.47
2019-03-28T12:13:09.753Z,20.57
2019-03-28T12:15:39.124Z,16.20
2019-03-28T12:18:08.497Z,16.87
2019-03-28T12:20:37.880Z,19.13
2019-03-28T12:23:07.224Z,14.27
2019-03-28T12:25:36.542Z,16.77
2019-03-28T12:28:06.073Z,19.33
2019-03-28T12:30:35.441Z,16.13
2019-03-28T12:33:04.809Z,20.47
2019-03-28T12:35:34.113Z,15.47
2019-03-28T12:38:03.586Z,15.73
2019-03-28T12:40:33.081Z,15.93
2019-03-28T12:43:02.378Z,21.13
2019-03-28T12:45:30.964Z,23.23
2019-03-28T12:48:00.337Z,22.23
2019-03-28T12:50:29.639Z,17.50
2019-03-28T12:52:58.933Z,22.60
2019-03-28T12:55:28.236Z,21.20
2019-03-28T12:57:57.535Z,20.77
2019-03-28T13:00:37.317Z,26.30
2019-03-28T13:03:06.686Z,30.30
2019-03-28T13:05:36.233Z,23.93
2019-03-28T13:08:05.924Z,29.07
2019-03-28T13:10:35.734Z,28.33
2019-03-28T13:13:05.250Z,25.73
2019-03-28T13:15:34.557Z,25.23
2019-03-28T13:18:03.921Z,21.70
2019-03-28T13:20:33.256Z,26.60
2019-03-28T13:23:02.782Z,33.17
2019-03-28T13:25:32.164Z,23.17
2019-03-28T13:28:01.498Z,29.33
2019-03-28T13:30:32.010Z,26.20
2019-03-28T13:33:01.309Z,24.63
2019-03-28T13:35:30.685Z,16.80
2019-03-28T13:38:00.019Z,31.97
2019-03-28T13:40:29.370Z,26.20
2019-03-28T13:42:57.946Z,24.87
2019-03-28T13:45:27.245Z,21.83
2019-03-28T13:47:55.897Z,29.40
2019-03-28T13:50:25.454Z,30.50
2019-03-28T13:52:54.016Z,22.57
2019-03-28T13:55:23.569Z,27.90
2019-03-28T13:57:53.201Z,22.53
2019-03-28T14:00:31.486Z,19.70
2019-03-28T14:03:00.161Z,21.77
2019-03-28T14:05:29.470Z,26.87
2019-03-28T14:07:58.768Z,27.57
2019-03-28T14:10:28.197Z,24.30
2019-03-28T14:12:57.679Z,23.33
2019-03-28T14:15:27.029Z,23.43
2019-03-28T14:17:55.600Z,22.87
2019-03-28T14:20:24.970Z,24.70
2019-03-28T14:22:54.276Z,25.87
2019-03-28T14:25:23.565Z,26.13
2019-03-28T14:27:52.863Z,23.10
2019-03-28T14:30:22.320Z,24.73
2019-03-28T14:32:53.417Z,29.87
2019-03-28T14:35:21.908Z,26.97
2019-03-28T14:37:51.237Z,30.57
2019-03-28T14:40:19.977Z,25.67
2019-03-28T14:42:49.281Z,20.87
2019-03-28T14:45:18.595Z,31.00
2019-03-28T14:47:48.197Z,25.73
2019-03-28T14:50:25.116Z,23.47
2019-03-28T14:52:54.429Z,21.83
2019-03-28T14:55:23.994Z,24.90
2019-03-28T14:57:53.425Z,22.13
2019-03-28T15:00:46.515Z,28.43
2019-03-28T15:03:25.598Z,25.80
2019-03-28T15:05:46.149Z,27.67
2019-03-28T15:08:18.159Z,24.73
2019-03-28T15:10:47.750Z,24.33
2019-03-28T15:13:17.213Z,26.27
2019-03-28T15:15:46.673Z,27.30
2019-03-28T15:18:16.049Z,31.90
2019-03-28T15:20:44.701Z,32.43
2019-03-28T15:23:14.010Z,28.50
2019-03-28T15:25:43.443Z,31.13
2019-03-28T15:28:13.165Z,29.20
2019-03-28T15:30:42.553Z,33.60
2019-03-28T15:33:11.941Z,29.87
2019-03-28T15:35:41.289Z,31.23
2019-03-28T15:38:10.594Z,32.30
2019-03-28T15:40:39.893Z,23.43
2019-03-28T15:43:08.546Z,23.10
2019-03-28T15:45:37.929Z,29.73
2019-03-28T15:48:07.297Z,25.63
2019-03-28T15:50:36.614Z,38.30
2019-03-28T15:53:06.742Z,34.70
2019-03-28T15:55:36.035Z,29.33
2019-03-28T15:58:05.490Z,29.67
2019-03-28T16:00:34.786Z,28.37
2019-03-28T16:03:04.539Z,31.10
2019-03-28T16:05:34.444Z,27.00
2019-03-28T16:08:04.751Z,26.27
2019-03-28T16:10:33.985Z,29.43
2019-03-28T16:13:05.625Z,26.53
2019-03-28T16:15:34.214Z,31.83
2019-03-28T16:18:03.566Z,29.47
2019-03-28T16:20:32.854Z,31.47
2019-03-28T16:23:01.430Z,24.00
2019-03-28T16:25:30.725Z,23.13
2019-03-28T16:28:00.011Z,26.40
2019-03-28T16:30:36.939Z,25.93
2019-03-28T16:33:07.071Z,22.37
2019-03-28T16:35:35.713Z,25.20
2019-03-28T16:38:04.357Z,26.17
2019-03-28T16:40:33.689Z,27.83
2019-03-28T16:43:03.052Z,26.83
2019-03-28T16:45:32.435Z,26.43
2019-03-28T16:48:01.029Z,20.13
2019-03-28T16:50:30.488Z,22.67
2019-03-28T16:52:59.781Z,22.83
2019-03-28T16:55:29.194Z,23.93
2019-03-28T16:57:58.599Z,24.30
2019-03-28T17:00:38.806Z,24.60
2019-03-28T17:03:08.553Z,20.63
2019-03-28T17:05:39.105Z,19.10
2019-03-28T17:08:08.645Z,22.53
2019-03-28T17:10:46.317Z,21.07
2019-03-28T17:13:16.065Z,22.73
2019-03-28T17:15:45.613Z,23.43
2019-03-28T17:18:18.308Z,20.57
2019-03-28T17:20:46.161Z,18.27
2019-03-28T17:23:15.601Z,23.20
2019-03-28T17:25:44.977Z,22.27
2019-03-28T17:28:14.365Z,21.20
2019-03-28T17:30:44.261Z,21.87
2019-03-28T17:33:13.578Z,20.07
2019-03-28T17:35:43.144Z,18.60
2019-03-28T17:38:11.789Z,19.60
2019-03-28T17:40:42.794Z,21.90
2019-03-28T17:43:12.459Z,27.63
2019-03-28T17:45:41.826Z,17.30
2019-03-28T17:48:11.319Z,20.43
2019-03-28T17:50:40.608Z,23.30
2019-03-28T17:53:10.021Z,18.27
2019-03-28T17:55:39.419Z,20.10
2019-03-28T17:58:08.727Z,22.07
2019-03-28T18:00:38.682Z,17.50
2019-03-28T18:03:09.581Z,14.20
2019-03-28T18:05:40.597Z,18.77
2019-03-28T18:08:10.328Z,26.93
2019-03-28T18:10:39.629Z,20.90
2019-03-28T18:13:08.946Z,19.47
2019-03-28T18:15:38.314Z,21.83
2019-03-28T18:18:07.765Z,24.47
2019-03-28T18:20:37.137Z,26.07
2019-03-28T18:23:06.470Z,38.73
2019-03-28T18:25:36.129Z,34.03
2019-03-28T18:28:05.594Z,27.93
2019-03-28T18:30:37.270Z,46.50
2019-03-28T18:33:05.730Z,41.37
2019-03-28T18:35:35.008Z,27.47
2019-03-28T18:38:04.348Z,48.67
2019-03-28T18:40:33.658Z,29.47
2019-03-28T18:43:02.964Z,48.20
2019-03-28T18:45:32.325Z,36.83
2019-03-28T18:48:01.652Z,41.07
2019-03-28T18:50:31.016Z,45.83
2019-03-28T18:53:00.338Z,39.00
2019-03-28T18:55:30.001Z,34.57
2019-03-28T18:57:59.597Z,38.17
2019-03-28T19:00:29.037Z,39.40
2019-03-28T19:02:58.411Z,25.53
2019-03-28T19:05:27.701Z,59.57
2019-03-28T19:07:57.082Z,127.70
2019-03-28T19:10:26.813Z,120.97
2019-03-28T19:12:56.551Z,113.30
2019-03-28T19:15:25.910Z,131.50
2019-03-28T19:17:55.193Z,72.13
2019-03-28T19:20:24.507Z,49.13
2019-03-28T19:22:53.840Z,25.57
2019-03-28T19:25:23.229Z,36.43
2019-03-28T19:27:52.520Z,31.60
2019-03-28T19:30:31.527Z,26.80
2019-03-28T19:33:01.058Z,29.87
2019-03-28T19:35:33.133Z,27.70
2019-03-28T19:38:03.201Z,31.83
2019-03-28T19:40:32.907Z,28.83
2019-03-28T19:43:02.545Z,27.20
2019-03-28T19:45:36.488Z,37.70
2019-03-28T19:48:07.310Z,32.53
2019-03-28T19:50:36.715Z,30.97
2019-03-28T19:53:06.876Z,26.73
2019-03-28T19:55:39.949Z,27.17
2019-03-28T19:58:08.738Z,28.90
2019-03-28T20:00:38.138Z,27.57
2019-03-28T20:03:07.427Z,32.77
2019-03-28T20:05:46.804Z,28.47
2019-03-28T20:08:15.493Z,32.33
2019-03-28T20:10:38.925Z,35.70
2019-03-28T20:13:08.293Z,37.60
2019-03-28T20:15:37.689Z,33.73
2019-03-28T20:18:06.981Z,34.33
2019-03-28T20:20:36.297Z,25.20
2019-03-28T20:23:05.887Z,37.33
2019-03-28T20:25:35.313Z,29.20
2019-03-28T20:28:04.893Z,50.80
2019-03-28T20:30:41.086Z,34.03
2019-03-28T20:33:11.137Z,38.30
2019-03-28T20:35:40.553Z,38.57
2019-03-28T20:38:09.957Z,39.87
2019-03-28T20:40:39.349Z,31.87
2019-03-28T20:43:08.649Z,32.77
2019-03-28T20:45:38.082Z,31.27
2019-03-28T20:48:07.517Z,28.37
2019-03-28T20:50:36.892Z,34.97
2019-03-28T20:53:06.326Z,36.07
2019-03-28T20:55:35.901Z,24.73
2019-03-28T20:58:05.186Z,30.10
2019-03-28T21:00:38.928Z,25.27
2019-03-28T21:03:08.691Z,27.43
2019-03-28T21:05:38.066Z,30.80
2019-03-28T21:08:07.621Z,25.30
2019-03-28T21:10:36.993Z,25.63
2019-03-28T21:13:06.381Z,26.10
2019-03-28T21:15:35.681Z,28.07
2019-03-28T21:18:05.044Z,25.90
2019-03-28T21:20:34.406Z,26.80
2019-03-28T21:23:05.370Z,27.27
2019-03-28T21:25:34.789Z,27.90
2019-03-28T21:28:04.259Z,25.27
2019-03-28T21:30:46.324Z,21.90
2019-03-28T21:33:04.931Z,23.20
2019-03-28T21:35:34.261Z,25.00
2019-03-28T21:38:03.785Z,17.10
2019-03-28T21:40:33.057Z,24.10
2019-03-28T21:43:02.622Z,22.93
2019-03-28T21:45:31.901Z,27.33
2019-03-28T21:48:01.181Z,25.13
2019-03-28T21:50:30.470Z,19.27
2019-03-28T21:52:59.760Z,17.67
2019-03-28T21:55:29.035Z,22.33
2019-03-28T21:57:58.353Z,22.90
2019-03-28T22:00:27.712Z,21.37
2019-03-28T22:02:56.999Z,22.97
2019-03-28T22:05:28.617Z,43.87
2019-03-28T22:07:55.953Z,56.03
2019-03-28T22:10:24.605Z,56.23
2019-03-28T22:12:53.989Z,86.90
2019-03-28T22:15:23.276Z,36.50
2019-03-28T22:17:51.957Z,19.30
2019-03-28T22:20:21.529Z,21.50
2019-03-28T22:22:50.820Z,22.83
2019-03-28T22:25:20.173Z,26.77
2019-03-28T22:27:49.469Z,20.07
2019-03-28T22:30:19.134Z,20.60
2019-03-28T22:32:49.998Z,25.73
2019-03-28T22:35:19.511Z,24.03
2019-03-28T22:37:48.084Z,18.40
2019-03-28T22:40:17.469Z,18.30
2019-03-28T22:42:46.281Z,18.87
2019-03-28T22:45:16.000Z,23.07
2019-03-28T22:47:44.578Z,18.27
2019-03-28T22:50:14.123Z,19.73
2019-03-28T22:52:43.421Z,18.13
2019-03-28T22:55:12.993Z,19.07
2019-03-28T22:57:42.293Z,21.43
2019-03-28T23:00:13.710Z,24.50
2019-03-28T23:02:43.073Z,16.17
2019-03-28T23:05:12.822Z,29.67
2019-03-28T23:07:42.124Z,24.92
2019-03-28T23:10:11.872Z,31.50
2019-03-28T23:12:41.223Z,21.03
2019-03-28T23:15:11.354Z,17.70
2019-03-28T23:17:40.709Z,23.33
2019-03-28T23:20:13.343Z,16.73
2019-03-28T23:22:42.626Z,21.93
2019-03-28T23:25:12.092Z,21.53
2019-03-28T23:27:41.461Z,23.55
2019-03-28T23:30:11.521Z,16.07
2019-03-28T23:32:40.881Z,18.90
2019-03-28T23:35:10.429Z,21.80
2019-03-28T23:37:39.720Z,21.00
2019-03-28T23:40:09.910Z,20.97
2019-03-28T23:42:39.261Z,14.53
2019-03-28T23:45:11.377Z,19.57
2019-03-28T23:47:39.973Z,13.93
2019-03-28T23:50:09.529Z,14.90
2019-03-28T23:52:38.838Z,18.10
2019-03-28T23:55:08.321Z,25.37
2019-03-28T23:57:37.623Z,14.77
